Time;durP1;ratioP1;P1;durP2;ratioP2;P2;SDS_P1;SDS_P2;PMS_P1;PMS_P2;Temp;Humidity;BMP_temperature;BMP_pressure;BME280_temperature;BME280_humidity;BME280_pressure;Samples;Min_cycle;Max_cycle;Signal;HPM_P1;HPM_P2
2023/02/12 00:00:43;;;;;;;23.77;16.85;;;9.40;99.90;;;;;;4981494;28;20026;-91
2023/02/12 00:03:09;;;;;;;23.95;16.20;;;9.40;99.90;;;;;;4965384;28;20026;-90
2023/02/12 00:05:40;;;;;;;25.30;15.57;;;9.40;99.90;;;;;;4981358;28;20468;-91
2023/02/12 00:08:10;;;;;;;20.50;14.70;;;9.30;99.90;;;;;;4981126;28;20027;-92
2023/02/12 00:10:40;;;;;;;23.27;15.38;;;9.40;99.90;;;;;;4981157;28;20034;-92
2023/02/12 00:13:07;;;;;;;23.67;16.98;;;9.30;99.90;;;;;;4982150;28;20472;-90
2023/02/12 00:15:33;;;;;;;29.30;17.50;;;9.40;99.90;;;;;;4981987;28;20027;-91
2023/02/12 00:17:59;;;;;;;22.90;15.07;;;9.40;99.90;;;;;;4966693;28;20077;-91
2023/02/12 00:20:25;;;;;;;21.88;14.98;;;9.30;99.90;;;;;;4980690;28;20026;-91
2023/02/12 00:22:51;;;;;;;22.65;16.38;;;9.40;99.90;;;;;;4965072;28;20146;-91
2023/02/12 00:25:17;;;;;;;25.75;16.33;;;9.30;99.90;;;;;;4980970;28;20475;-91
2023/02/12 00:27:43;;;;;;;24.08;16.65;;;9.30;99.90;;;;;;4965193;28;20042;-83
2023/02/12 00:30:09;;;;;;;24.80;16.25;;;9.30;99.90;;;;;;4979175;28;20032;-83
2023/02/12 00:32:36;;;;;;;27.60;17.02;;;9.30;99.90;;;;;;4963260;28;20039;-83
2023/02/12 00:35:02;;;;;;;27.20;16.45;;;9.20;99.90;;;;;;4979093;28;20030;-83
2023/02/12 00:37:28;;;;;;;26.17;17.52;;;9.20;99.90;;;;;;4962999;28;20026;-83
2023/02/12 00:39:54;;;;;;;25.15;16.00;;;9.20;99.90;;;;;;4979331;28;20499;-83
2023/02/12 00:42:21;;;;;;;26.10;16.42;;;9.20;99.90;;;;;;4962211;28;20038;-83
2023/02/12 00:44:48;;;;;;;26.55;16.88;;;9.20;99.90;;;;;;4979311;28;20093;-87
2023/02/12 00:47:15;;;;;;;27.13;17.20;;;9.10;99.90;;;;;;4963337;28;20439;-87
2023/02/12 00:49:41;;;;;;;26.95;17.05;;;9.10;99.90;;;;;;4979568;28;20025;-87
2023/02/12 00:52:07;;;;;;;26.65;17.33;;;9.10;99.90;;;;;;4963382;28;20035;-87
2023/02/12 00:54:33;;;;;;;26.67;17.13;;;9.10;99.90;;;;;;4963208;28;20185;-87
2023/02/12 00:56:59;;;;;;;24.40;17.05;;;9.10;99.90;;;;;;4963435;28;20030;-90
2023/02/12 00:59:26;;;;;;;24.42;17.38;;;9.10;99.90;;;;;;4991771;28;20041;-92
2023/02/12 01:01:54;;;;;;;27.33;17.23;;;9.10;99.90;;;;;;4984546;28;20498;-87
2023/02/12 01:04:20;;;;;;;27.27;18.23;;;9.10;99.90;;;;;;5001949;28;20030;-87
2023/02/12 01:06:46;;;;;;;27.77;17.65;;;9.10;99.90;;;;;;4983565;28;20037;-87
2023/02/12 01:09:12;;;;;;;25.98;16.98;;;9.10;99.90;;;;;;5010205;28;20015;-87
2023/02/12 01:11:37;;;;;;;29.67;18.90;;;9.10;99.90;;;;;;4972028;28;20030;-87
2023/02/12 01:14:04;;;;;;;28.10;18.02;;;9.10;99.90;;;;;;4994165;28;20038;-88
2023/02/12 01:16:35;;;;;;;23.70;16.73;;;9.10;99.90;;;;;;5003107;28;20030;-88
2023/02/12 01:19:01;;;;;;;25.02;17.05;;;9.10;99.90;;;;;;4980811;28;20030;-83
2023/02/12 01:21:29;;;;;;;26.52;18.35;;;9.10;99.90;;;;;;4979016;28;20023;-83
2023/02/12 01:23:56;;;;;;;25.40;16.42;;;9.10;99.90;;;;;;4964033;28;20014;-83
2023/02/12 01:26:22;;;;;;;27.13;17.73;;;9.10;99.90;;;;;;4980045;28;20318;-83
2023/02/12 01:28:53;;;;;;;28.13;18.45;;;9.00;99.90;;;;;;4990582;28;20041;-83
2023/02/12 01:31:21;;;;;;;30.85;18.77;;;9.00;99.90;;;;;;4980805;28;20301;-83
2023/02/12 01:33:49;;;;;;;26.95;17.45;;;9.00;99.90;;;;;;4992135;28;20036;-83
2023/02/12 01:36:15;;;;;;;29.70;18.20;;;9.00;99.90;;;;;;4979834;28;20034;-91
2023/02/12 01:38:41;;;;;;;29.88;17.70;;;9.00;99.90;;;;;;4979321;28;20046;-92
2023/02/12 01:41:09;;;;;;;32.67;18.55;;;9.00;99.90;;;;;;4979056;28;20113;-91
2023/02/12 01:43:37;;;;;;;28.70;18.45;;;9.00;99.90;;;;;;4979483;28;20018;-92
2023/02/12 01:46:03;;;;;;;27.63;18.45;;;9.00;99.90;;;;;;4963035;28;20062;-92
2023/02/12 01:48:37;;;;;;;26.65;17.05;;;9.00;99.90;;;;;;4979113;28;20026;-93
2023/02/12 01:51:08;;;;;;;27.45;17.25;;;9.00;99.90;;;;;;4979661;28;20054;-83
2023/02/12 01:54:01;;;;;;;28.80;18.08;;;9.00;99.90;;;;;;4977708;28;20376;-84
2023/02/12 01:56:28;;;;;;;27.08;17.70;;;9.00;99.90;;;;;;4974912;28;20479;-83
2023/02/12 01:58:56;;;;;;;27.40;17.88;;;9.00;99.90;;;;;;4994100;28;20328;-83
2023/02/12 02:01:25;;;;;;;27.90;17.42;;;8.90;99.90;;;;;;4961508;28;20037;-83
2023/02/12 02:03:54;;;;;;;29.30;18.20;;;9.00;99.90;;;;;;4977842;28;20391;-83
2023/02/12 02:06:33;;;;;;;25.52;17.00;;;8.90;99.90;;;;;;4977551;28;20041;-84
2023/02/12 02:09:00;;;;;;;28.05;18.00;;;8.90;99.90;;;;;;4978167;28;20039;-88
2023/02/12 02:17:16;;;;;;;29.20;18.20;;;8.90;99.90;;;;;;4995415;28;20066;-89
2023/02/12 02:20:21;;;;;;;29.55;17.50;;;8.90;99.90;;;;;;4977842;28;20027;-88
2023/02/12 02:23:17;;;;;;;26.60;18.02;;;8.80;99.90;;;;;;4978092;28;20050;-88
2023/02/12 02:25:54;;;;;;;24.92;16.95;;;8.80;99.90;;;;;;4978407;28;20056;-92
2023/02/12 02:28:39;;;;;;;30.02;18.98;;;8.90;99.90;;;;;;4978845;28;20034;-92
2023/02/12 02:31:11;;;;;;;28.65;18.75;;;8.80;99.90;;;;;;4978665;28;20026;-93
2023/02/12 02:34:11;;;;;;;26.92;18.10;;;8.80;99.90;;;;;;4979272;28;20030;-92
2023/02/12 02:37:11;;;;;;;29.90;18.30;;;8.80;99.90;;;;;;4979105;28;20030;-91
2023/02/12 02:39:37;;;;;;;25.58;18.45;;;8.80;99.90;;;;;;4961778;28;20047;-91
2023/02/12 02:42:21;;;;;;;27.27;17.80;;;8.70;99.90;;;;;;4958897;28;20041;-92
2023/02/12 02:44:58;;;;;;;30.52;18.30;;;8.70;99.90;;;;;;4959862;28;20034;-93
2023/02/12 02:47:32;;;;;;;26.45;17.95;;;8.70;99.90;;;;;;4958637;28;20181;-92
2023/02/12 02:50:06;;;;;;;34.58;19.98;;;8.70;99.90;;;;;;4959134;28;20031;-93
2023/02/12 02:52:40;;;;;;;29.63;19.15;;;8.70;99.90;;;;;;4958775;28;20113;-92
2023/02/12 02:55:08;;;;;;;27.58;18.88;;;8.70;99.90;;;;;;4959061;28;20453;-92
2023/02/12 02:57:44;;;;;;;29.10;18.23;;;8.70;99.90;;;;;;4958706;28;20030;-86
2023/02/12 03:00:34;;;;;;;29.83;18.92;;;8.60;99.90;;;;;;4958225;28;20030;-89
2023/02/12 03:03:22;;;;;;;27.92;19.75;;;8.70;99.90;;;;;;4958106;28;20171;-89
2023/02/12 03:05:51;;;;;;;28.85;20.13;;;8.60;99.90;;;;;;4958927;28;20487;-89
2023/02/12 03:08:26;;;;;;;32.30;19.38;;;8.60;99.90;;;;;;4961978;28;20069;-88
2023/02/12 03:11:25;;;;;;;29.42;18.65;;;8.60;99.90;;;;;;4994324;28;20045;-89
2023/02/12 03:14:03;;;;;;;31.75;19.83;;;8.60;99.90;;;;;;4956632;28;20392;-89
2023/02/12 03:16:33;;;;;;;30.90;19.25;;;8.60;99.90;;;;;;4965722;28;20018;-94
2023/02/12 03:19:22;;;;;;;31.95;20.70;;;8.60;99.90;;;;;;4967252;28;20086;-92
2023/02/12 03:22:02;;;;;;;32.22;19.75;;;8.60;99.90;;;;;;4963229;28;20023;-94
2023/02/12 03:24:43;;;;;;;30.00;20.88;;;8.60;99.90;;;;;;4962684;28;20030;-94
2023/02/12 03:27:16;;;;;;;29.13;18.92;;;8.60;99.90;;;;;;4962186;28;20191;-93
2023/02/12 03:29:48;;;;;;;29.77;19.70;;;8.50;99.90;;;;;;4962924;28;20023;-93
2023/02/12 03:32:39;;;;;;;28.98;19.48;;;8.60;99.90;;;;;;4962035;28;20031;-92
2023/02/12 03:35:47;;;;;;;27.93;19.20;;;8.50;99.90;;;;;;4962239;28;20022;-94
2023/02/12 03:38:22;;;;;;;29.27;20.23;;;8.50;99.90;;;;;;4966038;28;20140;-92
2023/02/12 03:41:17;;;;;;;28.70;19.50;;;8.50;99.90;;;;;;4982413;28;20107;-93
2023/02/12 03:43:55;;;;;;;31.60;18.48;;;8.50;99.90;;;;;;4998377;28;20092;-91
2023/02/12 03:46:55;;;;;;;28.50;18.17;;;8.50;99.90;;;;;;4981234;28;20030;-93
2023/02/12 03:49:45;;;;;;;30.48;19.48;;;8.40;99.90;;;;;;4981007;28;20054;-85
2023/02/12 03:52:10;;;;;;;29.33;19.23;;;8.40;99.90;;;;;;4979751;28;20030;-84
2023/02/12 03:54:37;;;;;;;27.92;18.38;;;8.40;99.90;;;;;;4982172;28;20084;-92
2023/02/12 03:57:08;;;;;;;31.85;18.55;;;8.40;99.90;;;;;;4981119;28;20034;-91
2023/02/12 03:59:36;;;;;;;29.45;19.38;;;8.40;99.90;;;;;;4982184;28;20456;-92
2023/02/12 04:02:03;;;;;;;28.30;18.65;;;8.30;99.90;;;;;;4981160;28;20027;-91
2023/02/12 04:04:29;;;;;;;27.00;19.08;;;8.30;99.90;;;;;;4982459;28;20105;-91
2023/02/12 04:06:56;;;;;;;29.38;19.10;;;8.30;99.90;;;;;;4981178;28;20181;-93
2023/02/12 04:09:25;;;;;;;27.50;18.90;;;8.30;99.90;;;;;;4982012;28;20030;-92
2023/02/12 04:12:09;;;;;;;25.63;17.98;;;8.30;99.90;;;;;;4980724;28;20022;-92
2023/02/12 04:14:48;;;;;;;28.08;17.85;;;8.30;99.90;;;;;;4981541;28;20032;-92
2023/02/12 04:17:47;;;;;;;31.08;18.75;;;8.30;99.90;;;;;;4979982;28;20084;-93
2023/02/12 04:20:30;;;;;;;29.20;18.85;;;8.30;99.90;;;;;;4980997;28;20089;-92
2023/02/12 04:23:10;;;;;;;30.55;19.08;;;8.30;99.90;;;;;;4981400;28;20070;-93
2023/02/12 04:25:44;;;;;;;28.33;18.35;;;8.30;99.90;;;;;;4981512;28;20022;-93
2023/02/12 04:28:30;;;;;;;32.63;20.52;;;8.20;99.90;;;;;;4980886;28;20034;-93
2023/02/12 04:31:02;;;;;;;28.23;18.73;;;8.20;99.90;;;;;;4980348;28;20026;-93
2023/02/12 04:34:01;;;;;;;31.48;20.17;;;8.20;99.90;;;;;;4981631;28;20023;-93
2023/02/12 04:36:34;;;;;;;27.80;19.10;;;8.30;99.90;;;;;;4980494;28;20566;-92
2023/02/12 04:39:06;;;;;;;31.10;19.60;;;8.30;99.90;;;;;;4980951;28;20050;-90
2023/02/12 04:41:34;;;;;;;28.27;20.58;;;8.30;99.90;;;;;;4981044;28;20117;-90
2023/02/12 04:44:13;;;;;;;27.83;20.52;;;8.30;99.90;;;;;;4980670;28;20035;-90
2023/02/12 04:46:39;;;;;;;28.00;19.42;;;8.30;99.90;;;;;;4980395;28;20120;-90
2023/02/12 04:49:05;;;;;;;28.77;20.15;;;8.30;99.90;;;;;;4980893;28;20078;-90
2023/02/12 04:51:31;;;;;;;30.35;19.38;;;8.30;99.90;;;;;;4980622;28;20030;-90
2023/02/12 04:53:56;;;;;;;29.13;19.83;;;8.30;99.90;;;;;;4980473;28;20030;-91
2023/02/12 04:56:22;;;;;;;25.88;19.63;;;8.30;99.90;;;;;;4980419;28;20093;-92
2023/02/12 04:58:48;;;;;;;28.08;20.60;;;8.30;99.90;;;;;;4981098;28;20109;-92
2023/02/12 05:01:14;;;;;;;30.40;20.77;;;8.30;99.90;;;;;;4980187;28;20038;-92
2023/02/12 05:03:39;;;;;;;28.50;20.02;;;8.30;99.90;;;;;;4980628;28;20034;-93
2023/02/12 05:06:07;;;;;;;31.35;19.92;;;8.30;99.90;;;;;;4996413;28;20559;-92
2023/02/12 05:08:32;;;;;;;28.77;19.45;;;8.30;99.90;;;;;;4981277;28;20484;-93
2023/02/12 05:11:09;;;;;;;26.52;18.58;;;8.30;99.90;;;;;;4996300;28;20030;-92
2023/02/12 05:13:36;;;;;;;29.55;19.52;;;8.30;99.90;;;;;;4980724;28;20093;-88
2023/02/12 05:16:06;;;;;;;32.08;20.05;;;8.30;99.90;;;;;;4981766;28;20022;-89
2023/02/12 05:18:34;;;;;;;31.27;20.85;;;8.30;99.90;;;;;;4982672;28;20184;-90
2023/02/12 05:21:02;;;;;;;26.63;18.88;;;8.30;99.90;;;;;;4979230;28;20160;-90
2023/02/12 05:23:30;;;;;;;28.55;20.02;;;8.30;99.90;;;;;;4981705;28;20030;-89
2023/02/12 05:26:03;;;;;;;37.15;22.27;;;8.30;99.90;;;;;;4978788;28;20468;-89
2023/02/12 05:28:30;;;;;;;29.90;20.88;;;8.30;99.90;;;;;;4997845;28;20026;-90
2023/02/12 05:31:00;;;;;;;28.65;20.70;;;8.40;99.90;;;;;;4979257;28;20431;-90
2023/02/12 05:33:28;;;;;;;30.67;20.77;;;8.30;99.90;;;;;;4980717;28;20019;-90
2023/02/12 05:35:54;;;;;;;33.75;21.75;;;8.30;99.90;;;;;;4978984;28;20022;-90
2023/02/12 05:38:23;;;;;;;29.95;20.52;;;8.30;99.90;;;;;;4993454;28;20161;-89
2023/02/12 05:40:48;;;;;;;31.42;20.60;;;8.30;99.90;;;;;;4959327;28;20058;-88
2023/02/12 05:43:27;;;;;;;28.38;20.70;;;8.30;99.90;;;;;;4991931;28;20042;-89
2023/02/12 05:45:53;;;;;;;30.42;21.05;;;8.30;99.90;;;;;;4991803;28;20027;-91
2023/02/12 05:48:19;;;;;;;33.00;21.50;;;8.30;99.90;;;;;;4992687;28;20041;-90
2023/02/12 05:50:44;;;;;;;28.33;20.30;;;8.30;99.90;;;;;;4959874;28;20019;-90
2023/02/12 05:53:11;;;;;;;28.50;19.20;;;8.30;99.90;;;;;;4961786;28;20042;-84
2023/02/12 05:55:36;;;;;;;30.52;20.23;;;8.30;99.90;;;;;;4958409;28;20031;-84
2023/02/12 05:58:02;;;;;;;28.90;21.45;;;8.30;99.90;;;;;;4990601;28;20615;-84
2023/02/12 06:00:28;;;;;;;29.48;20.58;;;8.30;99.90;;;;;;4958497;28;20093;-84
2023/02/12 06:02:54;;;;;;;32.65;20.75;;;8.30;99.90;;;;;;4978062;28;20428;-90
2023/02/12 06:05:20;;;;;;;28.38;19.80;;;8.30;99.90;;;;;;4959526;28;20041;-90
2023/02/12 06:07:48;;;;;;;28.98;20.27;;;8.30;99.90;;;;;;4991856;28;20121;-90
2023/02/12 06:10:13;;;;;;;29.00;19.65;;;8.30;99.90;;;;;;4960046;28;20029;-90
2023/02/12 06:12:39;;;;;;;26.88;18.77;;;8.30;99.90;;;;;;4992103;28;20027;-90
2023/02/12 06:15:05;;;;;;;25.75;19.05;;;8.30;99.90;;;;;;4959487;28;20173;-90
2023/02/12 06:17:42;;;;;;;30.30;20.75;;;8.30;99.90;;;;;;4959457;28;20030;-90
2023/02/12 06:20:07;;;;;;;28.15;20.15;;;8.30;99.90;;;;;;4976287;28;20031;-92
2023/02/12 06:22:33;;;;;;;33.55;21.42;;;8.30;99.90;;;;;;5011443;28;20015;-93
2023/02/12 06:24:59;;;;;;;30.15;20.60;;;8.30;99.90;;;;;;4977407;28;20046;-92
2023/02/12 06:27:24;;;;;;;27.67;20.55;;;8.30;99.90;;;;;;5009056;28;20122;-93
2023/02/12 06:29:50;;;;;;;29.98;22.13;;;8.30;99.90;;;;;;4976434;28;20370;-93
2023/02/12 06:32:17;;;;;;;30.90;21.42;;;8.30;99.90;;;;;;5004768;28;20031;-93
2023/02/12 06:34:42;;;;;;;31.98;20.73;;;8.30;99.90;;;;;;4974022;28;20073;-90
2023/02/12 06:37:08;;;;;;;31.10;20.95;;;8.30;99.90;;;;;;4991115;28;20027;-90
2023/02/12 06:39:37;;;;;;;32.03;22.48;;;8.20;99.90;;;;;;4978962;28;20464;-90
2023/02/12 06:42:03;;;;;;;30.02;18.85;;;8.30;99.90;;;;;;4977269;28;20042;-90
2023/02/12 06:44:28;;;;;;;32.65;20.67;;;8.30;99.90;;;;;;4980066;28;20018;-92
2023/02/12 06:46:54;;;;;;;30.88;21.13;;;8.20;99.90;;;;;;4977798;28;20061;-94
2023/02/12 06:49:20;;;;;;;27.23;20.10;;;8.30;99.90;;;;;;4978253;28;20034;-93
2023/02/12 06:51:45;;;;;;;31.30;22.00;;;8.20;99.90;;;;;;4978890;28;20490;-89
2023/02/12 06:54:16;;;;;;;29.63;19.92;;;8.30;99.90;;;;;;4977601;28;20387;-88
2023/02/12 06:56:43;;;;;;;29.50;20.98;;;8.20;99.90;;;;;;4977265;28;20439;-88
2023/02/12 06:59:14;;;;;;;30.40;20.45;;;8.20;99.90;;;;;;4994934;28;20027;-88
2023/02/12 07:01:40;;;;;;;34.63;22.75;;;8.20;99.90;;;;;;4994422;28;20038;-88
2023/02/12 07:04:06;;;;;;;30.20;21.33;;;8.20;99.90;;;;;;4977449;28;20460;-89
2023/02/12 07:06:34;;;;;;;31.42;22.42;;;8.20;99.90;;;;;;4977699;28;20173;-88
2023/02/12 07:09:00;;;;;;;30.42;22.27;;;8.20;99.90;;;;;;4988888;28;20026;-93
2023/02/12 07:11:28;;;;;;;30.85;20.50;;;8.20;99.90;;;;;;4978085;28;20375;-92
2023/02/12 07:13:54;;;;;;;35.10;21.00;;;8.20;99.90;;;;;;4979007;28;20484;-92
2023/02/12 07:16:20;;;;;;;31.20;21.15;;;8.20;99.90;;;;;;4979326;28;20035;-92
2023/02/12 07:18:46;;;;;;;28.48;20.73;;;8.20;99.90;;;;;;4978272;28;20041;-92
2023/02/12 07:21:14;;;;;;;32.67;22.08;;;8.20;99.90;;;;;;4977890;28;20042;-93
2023/02/12 07:23:40;;;;;;;31.95;22.02;;;8.20;99.90;;;;;;4977809;28;20058;-92
2023/02/12 07:26:09;;;;;;;32.08;22.05;;;8.20;99.90;;;;;;4977385;28;20034;-88
2023/02/12 07:28:35;;;;;;;33.00;22.25;;;8.20;99.90;;;;;;4977291;28;20399;-89
2023/02/12 07:31:33;;;;;;;29.42;21.52;;;8.20;99.90;;;;;;4977247;28;20019;-89
2023/02/12 07:34:00;;;;;;;31.48;22.70;;;8.20;99.90;;;;;;4903492;29;20504;-89
2023/02/12 07:36:29;;;;;;;31.08;21.33;;;8.30;99.90;;;;;;4911485;28;20039;-89
2023/02/12 07:38:56;;;;;;;33.75;22.27;;;8.20;99.90;;;;;;4988454;28;20045;-88
2023/02/12 07:41:24;;;;;;;33.92;21.77;;;8.20;99.90;;;;;;4994756;28;20026;-88
2023/02/12 07:43:59;;;;;;;33.70;22.65;;;8.30;99.90;;;;;;4986377;28;20041;-89
2023/02/12 07:46:36;;;;;;;31.50;21.48;;;8.20;99.90;;;;;;4993623;28;20369;-87
2023/02/12 07:49:04;;;;;;;29.65;21.08;;;8.30;99.90;;;;;;4995817;28;20125;-87
2023/02/12 07:51:34;;;;;;;32.22;22.00;;;8.30;99.90;;;;;;4995036;28;20507;-87
2023/02/12 07:54:00;;;;;;;32.55;21.95;;;8.30;99.90;;;;;;4995657;28;20031;-86
2023/02/12 07:56:33;;;;;;;29.55;21.65;;;8.30;99.90;;;;;;4997018;28;20014;-87
2023/02/12 07:59:01;;;;;;;33.42;22.10;;;8.30;99.90;;;;;;5005274;28;20368;-89
2023/02/12 08:01:32;;;;;;;31.65;21.85;;;8.30;99.90;;;;;;5007640;28;20058;-89
2023/02/12 08:03:59;;;;;;;32.35;23.50;;;8.30;99.90;;;;;;5003339;28;20022;-88
2023/02/12 08:06:28;;;;;;;33.22;22.83;;;8.30;99.90;;;;;;4999583;28;20038;-87
2023/02/12 08:08:59;;;;;;;32.78;22.25;;;8.30;99.90;;;;;;4981888;28;20037;-87
2023/02/12 08:11:27;;;;;;;34.40;24.42;;;8.30;99.90;;;;;;4998580;28;20034;-87
2023/02/12 08:13:53;;;;;;;31.48;22.52;;;8.40;99.90;;;;;;4989670;28;20089;-87
2023/02/12 08:16:20;;;;;;;32.85;23.50;;;8.30;99.90;;;;;;4997274;28;20026;-91
2023/02/12 08:18:47;;;;;;;34.65;23.50;;;8.40;99.90;;;;;;4981657;28;20042;-91
2023/02/12 08:21:18;;;;;;;32.30;23.13;;;8.40;99.90;;;;;;4996182;28;20126;-94
2023/02/12 08:23:44;;;;;;;31.55;23.02;;;8.40;99.90;;;;;;4996896;28;20035;-93
2023/02/12 08:26:20;;;;;;;32.50;23.13;;;8.40;99.90;;;;;;4996965;28;20030;-93
2023/02/12 08:28:48;;;;;;;33.53;23.38;;;8.40;99.90;;;;;;4981055;28;20030;-91
2023/02/12 08:31:20;;;;;;;30.70;21.80;;;8.40;99.90;;;;;;4996832;28;20059;-93
2023/02/12 08:33:47;;;;;;;31.73;22.73;;;8.50;99.90;;;;;;4996944;28;20018;-91
2023/02/12 08:36:15;;;;;;;31.70;22.08;;;8.50;99.90;;;;;;4996841;28;20109;-91
2023/02/12 08:38:42;;;;;;;30.42;22.35;;;8.50;99.90;;;;;;4996900;28;20508;-93
2023/02/12 08:41:10;;;;;;;31.13;21.77;;;8.50;99.90;;;;;;4996762;28;20037;-92
2023/02/12 08:43:37;;;;;;;29.95;22.20;;;8.50;99.90;;;;;;4997038;28;20029;-92
2023/02/12 08:46:16;;;;;;;34.83;23.67;;;8.50;99.90;;;;;;4996640;28;20038;-92
2023/02/12 08:48:43;;;;;;;32.17;23.27;;;8.60;99.90;;;;;;4996451;28;20121;-83
2023/02/12 08:51:18;;;;;;;31.27;22.92;;;8.60;99.90;;;;;;5011804;28;20027;-83
2023/02/12 08:53:46;;;;;;;30.17;22.80;;;8.60;99.90;;;;;;4996677;28;20022;-83
2023/02/12 08:56:13;;;;;;;31.83;22.35;;;8.60;99.90;;;;;;4994935;28;20061;-83
2023/02/12 08:58:39;;;;;;;32.90;22.88;;;8.60;99.90;;;;;;4994953;28;20155;-83
2023/02/12 09:01:10;;;;;;;33.30;22.80;;;8.60;99.90;;;;;;4978617;28;20054;-83
2023/02/12 09:03:36;;;;;;;29.65;22.17;;;8.70;99.90;;;;;;4995440;28;20109;-83
2023/02/12 09:06:06;;;;;;;33.15;23.45;;;8.70;99.90;;;;;;4995183;28;20483;-88
2023/02/12 09:08:32;;;;;;;35.43;24.83;;;8.70;99.90;;;;;;4995339;28;20034;-87
2023/02/12 09:10:58;;;;;;;33.65;23.33;;;8.70;99.90;;;;;;4994986;28;20027;-87
2023/02/12 09:13:25;;;;;;;34.08;23.48;;;8.80;99.90;;;;;;4978483;28;20018;-83
2023/02/12 09:15:51;;;;;;;37.28;24.48;;;8.70;99.90;;;;;;4994473;28;20037;-83
2023/02/12 09:18:18;;;;;;;36.42;25.10;;;8.70;99.90;;;;;;5010555;28;20121;-83
2023/02/12 09:20:44;;;;;;;33.53;24.23;;;8.80;99.90;;;;;;4994871;28;20548;-83
2023/02/12 09:23:12;;;;;;;35.10;23.63;;;8.80;99.90;;;;;;4994333;28;20026;-83
2023/02/12 09:25:43;;;;;;;33.90;23.15;;;8.80;99.90;;;;;;4994736;28;20038;-83
2023/02/12 09:28:09;;;;;;;31.98;23.83;;;8.80;99.90;;;;;;4995181;28;20026;-82
2023/02/12 09:30:37;;;;;;;31.70;23.85;;;8.80;99.90;;;;;;4994698;28;20121;-82
2023/02/12 09:33:04;;;;;;;30.17;22.15;;;8.80;99.90;;;;;;4994756;28;20019;-82
2023/02/12 09:35:29;;;;;;;33.65;23.80;;;8.80;99.90;;;;;;4994657;28;20027;-83
2023/02/12 09:37:57;;;;;;;33.17;23.20;;;8.80;99.90;;;;;;4978470;28;20050;-87
2023/02/12 09:40:46;;;;;;;32.28;22.75;;;8.80;99.90;;;;;;4996066;28;20030;-88
2023/02/12 09:43:47;;;;;;;32.10;23.27;;;8.80;99.90;;;;;;4996071;28;20037;-88
2023/02/12 09:46:13;;;;;;;31.50;23.08;;;8.80;99.90;;;;;;4995244;28;20022;-88
2023/02/12 09:48:50;;;;;;;34.97;24.38;;;8.80;99.90;;;;;;4996572;28;20045;-88
2023/02/12 09:51:15;;;;;;;36.35;22.85;;;8.80;99.90;;;;;;4994835;28;20029;-88
2023/02/12 09:53:45;;;;;;;33.10;23.23;;;8.80;99.90;;;;;;4995498;28;20026;-88
2023/02/12 09:56:21;;;;;;;34.33;23.95;;;8.80;99.90;;;;;;4993808;28;20033;-84
2023/02/12 09:58:51;;;;;;;36.05;25.00;;;8.80;99.90;;;;;;4993810;28;20034;-84
2023/02/12 10:01:19;;;;;;;34.92;24.08;;;8.80;99.90;;;;;;5009815;28;20028;-84
2023/02/12 10:03:48;;;;;;;36.15;23.90;;;8.80;99.90;;;;;;4994043;28;20545;-84
2023/02/12 10:06:17;;;;;;;36.88;25.65;;;8.80;99.90;;;;;;4993440;28;20026;-84
2023/02/12 10:09:19;;;;;;;36.85;24.70;;;8.80;99.90;;;;;;4994055;28;20033;-84
2023/02/12 10:12:10;;;;;;;36.63;24.35;;;8.90;99.90;;;;;;4983324;28;20482;-89
2023/02/12 10:15:28;;;;;;;32.22;23.08;;;8.90;99.90;;;;;;4994974;28;20037;-89
2023/02/12 10:18:15;;;;;;;30.52;20.90;;;8.90;99.90;;;;;;4994725;28;20038;-90
2023/02/12 10:21:08;;;;;;;30.15;20.85;;;8.90;99.90;;;;;;4994360;28;20050;-89
2023/02/12 10:23:40;;;;;;;33.33;21.65;;;8.90;99.90;;;;;;4994868;28;20039;-89
2023/02/12 10:26:11;;;;;;;30.23;20.92;;;8.90;99.90;;;;;;4994041;28;20022;-89
2023/02/12 10:28:41;;;;;;;30.17;21.33;;;8.90;99.90;;;;;;4994284;28;20034;-85
2023/02/12 10:31:36;;;;;;;32.03;20.85;;;8.90;99.90;;;;;;4993080;28;20129;-84
2023/02/12 10:34:20;;;;;;;30.58;20.88;;;9.00;99.90;;;;;;4993676;28;20467;-84
2023/02/12 10:36:53;;;;;;;29.63;20.55;;;9.00;99.90;;;;;;4993079;28;20034;-84
2023/02/12 10:39:23;;;;;;;29.33;19.15;;;9.00;99.90;;;;;;4990237;28;20050;-84
2023/02/12 10:42:26;;;;;;;25.55;18.23;;;9.10;99.90;;;;;;4992889;28;20033;-84
2023/02/12 10:44:52;;;;;;;27.92;17.73;;;9.10;99.90;;;;;;4993583;28;20036;-84
2023/02/12 10:47:23;;;;;;;26.02;18.45;;;9.10;99.90;;;;;;4976565;28;20476;-84
2023/02/12 10:49:59;;;;;;;27.30;18.42;;;9.00;99.90;;;;;;4993154;28;20061;-84
2023/02/12 10:52:45;;;;;;;26.95;18.98;;;9.00;99.90;;;;;;4991717;28;20026;-84
2023/02/12 10:55:26;;;;;;;24.27;16.25;;;9.10;99.90;;;;;;4969245;28;20387;-84
2023/02/12 10:57:54;;;;;;;24.33;16.58;;;9.10;99.90;;;;;;4977380;28;20412;-84
2023/02/12 11:00:32;;;;;;;27.90;18.13;;;9.10;99.90;;;;;;4992628;28;20119;-84
2023/02/12 11:03:01;;;;;;;28.33;18.90;;;9.10;99.90;;;;;;5011211;28;20085;-89
2023/02/12 11:05:29;;;;;;;29.52;17.85;;;9.10;99.90;;;;;;4990934;28;20026;-90
2023/02/12 11:07:58;;;;;;;25.77;16.70;;;9.10;99.90;;;;;;4993763;28;20018;-90
2023/02/12 11:10:34;;;;;;;25.52;17.38;;;9.10;99.90;;;;;;4962549;28;20030;-90
2023/02/12 11:13:01;;;;;;;26.75;16.63;;;9.20;99.90;;;;;;4955785;28;20026;-90
2023/02/12 11:15:34;;;;;;;25.83;16.63;;;9.20;99.90;;;;;;4975205;28;20464;-90
2023/02/12 11:18:07;;;;;;;24.30;15.77;;;9.20;99.90;;;;;;4975659;28;20113;-84
2023/02/12 11:20:48;;;;;;;26.33;16.30;;;9.10;99.90;;;;;;4975996;28;20031;-84
2023/02/12 11:23:28;;;;;;;23.40;16.58;;;9.20;99.90;;;;;;4975516;28;20029;-84
2023/02/12 11:26:22;;;;;;;24.85;16.70;;;9.20;99.90;;;;;;4976117;28;20034;-84
2023/02/12 11:28:58;;;;;;;28.45;17.08;;;9.20;99.90;;;;;;4996086;28;20036;-84
2023/02/12 11:31:27;;;;;;;27.83;17.55;;;9.30;99.90;;;;;;4995843;28;20035;-84
2023/02/12 11:34:15;;;;;;;27.55;17.98;;;9.30;99.90;;;;;;4995823;28;20022;-84
2023/02/12 11:36:52;;;;;;;28.77;16.65;;;9.30;99.90;;;;;;4995776;28;20037;-84
2023/02/12 11:39:31;;;;;;;26.73;17.67;;;9.30;99.90;;;;;;4996795;28;20046;-84
2023/02/12 11:42:04;;;;;;;28.10;17.52;;;9.30;99.90;;;;;;4991650;28;20049;-84
2023/02/12 11:44:35;;;;;;;27.73;17.55;;;9.40;99.90;;;;;;5009276;28;20031;-84
2023/02/12 11:47:07;;;;;;;27.08;18.40;;;9.40;99.90;;;;;;4997082;28;20027;-84
2023/02/12 11:49:56;;;;;;;27.48;17.70;;;9.40;99.90;;;;;;4991931;28;20121;-84
2023/02/12 11:52:27;;;;;;;23.52;15.88;;;9.50;99.90;;;;;;4991690;28;20026;-89
2023/02/12 11:54:59;;;;;;;24.38;17.75;;;9.50;99.90;;;;;;4995771;28;20029;-90
2023/02/12 11:57:36;;;;;;;25.13;16.88;;;9.50;99.90;;;;;;4996357;28;20022;-89
2023/02/12 12:00:10;;;;;;;29.08;19.63;;;9.50;99.90;;;;;;4992771;28;20121;-90
2023/02/12 12:02:41;;;;;;;25.45;18.27;;;9.60;99.90;;;;;;4989594;28;20018;-90
2023/02/12 12:05:10;;;;;;;;;;;9.60;99.90;;;;;;4996752;28;20018;-88
2023/02/12 12:07:40;;;;;;;26.75;16.80;;;9.60;99.90;;;;;;5008888;28;19932;-93
2023/02/12 12:10:30;;;;;;;25.58;16.67;;;9.60;99.90;;;;;;4997035;28;20029;-92
2023/02/12 12:13:02;;;;;;;23.77;16.25;;;9.70;99.90;;;;;;4990416;28;20497;-92
2023/02/12 12:21:33;;;;;;;24.23;16.38;;;9.70;99.90;;;;;;4978694;28;20045;-93
2023/02/12 12:24:05;;;;;;;26.20;16.88;;;9.80;99.90;;;;;;4960928;28;20031;-92
2023/02/12 12:26:34;;;;;;;24.60;16.77;;;9.80;99.90;;;;;;4982024;28;20033;-84
2023/02/12 12:29:15;;;;;;;24.83;15.75;;;9.80;99.90;;;;;;4995783;28;20110;-84
2023/02/12 12:31:45;;;;;;;23.83;16.15;;;9.80;99.90;;;;;;4989796;28;20562;-84
2023/02/12 12:34:21;;;;;;;24.30;16.23;;;9.80;99.90;;;;;;4993922;28;20086;-84
2023/02/12 12:37:20;;;;;;;24.95;16.55;;;9.80;99.90;;;;;;5000579;28;20050;-83
2023/02/12 13:47:21;;;;;;;;;;;10.00;99.90;;;;;;4987494;28;20041;-84
2023/02/12 13:49:57;;;;;;;23.48;16.20;;;10.00;99.90;;;;;;4984436;28;19914;-90
2023/02/12 13:52:26;;;;;;;25.23;17.52;;;10.00;99.90;;;;;;4961570;28;20023;-90
2023/02/12 13:55:28;;;;;;;26.63;16.70;;;10.00;99.90;;;;;;4975577;28;20027;-90
2023/02/12 13:58:38;;;;;;;;;;;10.00;99.90;;;;;;4974258;28;20022;-90
2023/02/12 14:01:10;;;;;;;21.98;15.57;;;10.00;99.90;;;;;;4928760;29;19986;-90
2023/02/12 14:03:38;;;;;;;25.02;17.35;;;10.10;99.90;;;;;;4923490;29;20028;-89
2023/02/12 14:06:08;;;;;;;25.77;17.58;;;10.00;99.90;;;;;;4932272;28;20039;-90
2023/02/12 14:08:41;;;;;;;23.42;16.83;;;10.00;99.90;;;;;;4955474;28;20380;-89
2023/02/12 14:11:21;;;;;;;25.30;16.98;;;10.10;99.90;;;;;;4958283;28;20119;-90
2023/02/12 14:14:03;;;;;;;26.02;16.45;;;10.10;99.90;;;;;;4960558;28;20021;-89
2023/02/12 14:16:29;;;;;;;23.85;16.67;;;10.10;99.90;;;;;;4958929;28;20074;-89
2023/02/12 14:19:32;;;;;;;27.75;17.10;;;10.10;99.90;;;;;;4959238;28;20027;-89
2023/02/12 14:22:22;;;;;;;22.65;16.83;;;10.10;99.90;;;;;;4964692;28;20119;-90
2023/02/12 14:24:53;;;;;;;23.50;16.40;;;10.20;99.90;;;;;;4936108;28;20064;-88